sensor_id;sensor_type;location;lat;lon;timestamp;pressure;altitude;pressure_sealevel;temperature;humidity
5814;BME280;2933;52.302;8.134;2022-07-09T00:04:25;101837.84;;;16.44;87.18
5814;BME280;2933;52.302;8.134;2022-07-09T00:09:27;101839.00;;;16.40;87.83
5814;BME280;2933;52.302;8.134;2022-07-09T00:14:30;101835.97;;;16.46;87.23
5814;BME280;2933;52.302;8.134;2022-07-09T00:19:31;101829.38;;;16.39;87.58
5814;BME280;2933;52.302;8.134;2022-07-09T00:24:33;101830.44;;;16.37;87.98
5814;BME280;2933;52.302;8.134;2022-07-09T00:29:36;101832.06;;;16.25;87.98
5814;BME280;2933;52.302;8.134;2022-07-09T00:34:37;101827.28;;;16.17;88.39
5814;BME280;2933;52.302;8.134;2022-07-09T00:39:39;101830.28;;;16.25;87.85
5814;BME280;2933;52.302;8.134;2022-07-09T00:44:42;101838.28;;;16.24;87.37
5814;BME280;2933;52.302;8.134;2022-07-09T00:49:43;101832.09;;;16.10;88.51
5814;BME280;2933;52.302;8.134;2022-07-09T00:54:45;101833.47;;;16.30;88.74
5814;BME280;2933;52.302;8.134;2022-07-09T00:59:48;101826.56;;;16.42;89.22
5814;BME280;2933;52.302;8.134;2022-07-09T01:04:50;101828.56;;;16.39;89.62
5814;BME280;2933;52.302;8.134;2022-07-09T01:09:51;101833.97;;;16.50;89.26
5814;BME280;2933;52.302;8.134;2022-07-09T01:14:54;101818.94;;;16.65;88.57
5814;BME280;2933;52.302;8.134;2022-07-09T01:19:56;101816.56;;;16.47;89.32
5814;BME280;2933;52.302;8.134;2022-07-09T01:25:00;101809.63;;;16.59;88.39
5814;BME280;2933;52.302;8.134;2022-07-09T01:30:03;101799.47;;;16.53;89.15
5814;BME280;2933;52.302;8.134;2022-07-09T01:35:06;101800.22;;;16.55;88.53
5814;BME280;2933;52.302;8.134;2022-07-09T01:40:10;101794.19;;;16.53;88.60
5814;BME280;2933;52.302;8.134;2022-07-09T01:45:12;101792.06;;;16.45;89.19
5814;BME280;2933;52.302;8.134;2022-07-09T01:50:13;101781.66;;;16.57;88.83
5814;BME280;2933;52.302;8.134;2022-07-09T01:55:16;101772.38;;;16.51;89.35
5814;BME280;2933;52.302;8.134;2022-07-09T02:00:18;101767.19;;;16.50;89.04
5814;BME280;2933;52.302;8.134;2022-07-09T02:05:20;101762.31;;;16.43;89.26
5814;BME280;2933;52.302;8.134;2022-07-09T02:10:23;101761.75;;;16.38;89.90
5814;BME280;2933;52.302;8.134;2022-07-09T02:15:24;101760.03;;;16.52;89.53
5814;BME280;2933;52.302;8.134;2022-07-09T02:20:26;101766.34;;;16.49;89.32
5814;BME280;2933;52.302;8.134;2022-07-09T02:25:29;101758.22;;;16.52;89.64
5814;BME280;2933;52.302;8.134;2022-07-09T02:30:30;101767.75;;;16.55;89.10
5814;BME280;2933;52.302;8.134;2022-07-09T02:35:32;101762.91;;;16.34;90.33
5814;BME280;2933;52.302;8.134;2022-07-09T02:40:35;101768.16;;;16.21;91.46
5814;BME280;2933;52.302;8.134;2022-07-09T02:45:36;101774.25;;;16.22;91.82
5814;BME280;2933;52.302;8.134;2022-07-09T02:50:38;101767.38;;;16.34;91.05
5814;BME280;2933;52.302;8.134;2022-07-09T02:55:40;101756.25;;;16.28;91.58
5814;BME280;2933;52.302;8.134;2022-07-09T03:00:42;101758.19;;;16.39;91.45
5814;BME280;2933;52.302;8.134;2022-07-09T03:05:44;101754.09;;;16.21;91.80
5814;BME280;2933;52.302;8.134;2022-07-09T03:10:47;101745.44;;;16.19;92.12
5814;BME280;2933;52.302;8.134;2022-07-09T03:15:48;101739.88;;;16.23;91.38
5814;BME280;2933;52.302;8.134;2022-07-09T03:20:50;101742.41;;;16.25;91.44
5814;BME280;2933;52.302;8.134;2022-07-09T03:25:53;101733.38;;;16.29;91.14
5814;BME280;2933;52.302;8.134;2022-07-09T03:30:55;101730.53;;;16.32;90.77
5814;BME280;2933;52.302;8.134;2022-07-09T03:35:57;101737.72;;;16.43;90.97
5814;BME280;2933;52.302;8.134;2022-07-09T03:40:59;101726.28;;;16.29;91.51
5814;BME280;2933;52.302;8.134;2022-07-09T03:46:01;101731.00;;;16.11;92.93
5814;BME280;2933;52.302;8.134;2022-07-09T03:51:03;101724.75;;;16.12;92.88
5814;BME280;2933;52.302;8.134;2022-07-09T03:56:06;101727.84;;;15.92;93.33
5814;BME280;2933;52.302;8.134;2022-07-09T04:01:08;101722.56;;;15.92;93.64
5814;BME280;2933;52.302;8.134;2022-07-09T04:06:09;101729.59;;;15.91;93.85
5814;BME280;2933;52.302;8.134;2022-07-09T04:11:12;101727.94;;;15.90;93.75
5814;BME280;2933;52.302;8.134;2022-07-09T04:16:14;101728.38;;;15.97;93.86
5814;BME280;2933;52.302;8.134;2022-07-09T04:21:15;101725.94;;;15.79;94.12
5814;BME280;2933;52.302;8.134;2022-07-09T04:26:19;101735.31;;;15.85;93.49
5814;BME280;2933;52.302;8.134;2022-07-09T04:31:20;101737.63;;;15.90;92.32
5814;BME280;2933;52.302;8.134;2022-07-09T04:36:22;101729.41;;;15.80;92.93
5814;BME280;2933;52.302;8.134;2022-07-09T04:41:25;101737.63;;;15.75;93.74
5814;BME280;2933;52.302;8.134;2022-07-09T04:46:26;101736.66;;;15.76;93.34
5814;BME280;2933;52.302;8.134;2022-07-09T04:51:30;101735.56;;;15.80;92.96
5814;BME280;2933;52.302;8.134;2022-07-09T04:56:33;101733.94;;;15.92;92.37
5814;BME280;2933;52.302;8.134;2022-07-09T05:01:36;101730.97;;;15.84;91.45
5814;BME280;2933;52.302;8.134;2022-07-09T05:06:37;101738.09;;;15.96;90.21
5814;BME280;2933;52.302;8.134;2022-07-09T05:11:40;101739.63;;;16.13;89.71
5814;BME280;2933;52.302;8.134;2022-07-09T05:16:41;101730.25;;;15.95;89.60
5814;BME280;2933;52.302;8.134;2022-07-09T05:21:44;101734.56;;;16.10;89.64
5814;BME280;2933;52.302;8.134;2022-07-09T05:26:47;101727.06;;;16.04;88.98
5814;BME280;2933;52.302;8.134;2022-07-09T05:31:49;101728.34;;;16.11;89.04
5814;BME280;2933;52.302;8.134;2022-07-09T05:36:51;101737.06;;;15.99;89.28
5814;BME280;2933;52.302;8.134;2022-07-09T05:41:54;101737.78;;;16.01;88.94
5814;BME280;2933;52.302;8.134;2022-07-09T05:47:01;101722.72;;;16.03;88.68
5814;BME280;2933;52.302;8.134;2022-07-09T05:52:04;101719.78;;;16.08;88.47
5814;BME280;2933;52.302;8.134;2022-07-09T05:57:07;101724.53;;;16.03;88.24
5814;BME280;2933;52.302;8.134;2022-07-09T06:02:08;101726.56;;;16.12;87.04
5814;BME280;2933;52.302;8.134;2022-07-09T06:07:10;101729.19;;;16.12;86.41
5814;BME280;2933;52.302;8.134;2022-07-09T06:12:13;101737.13;;;16.25;85.98
5814;BME280;2933;52.302;8.134;2022-07-09T06:17:14;101735.75;;;16.59;83.87
5814;BME280;2933;52.302;8.134;2022-07-09T06:22:15;101720.28;;;16.55;84.16
5814;BME280;2933;52.302;8.134;2022-07-09T06:27:19;101726.09;;;16.73;83.35
5814;BME280;2933;52.302;8.134;2022-07-09T06:32:21;101724.34;;;16.99;82.31
5814;BME280;2933;52.302;8.134;2022-07-09T06:37:22;101718.03;;;17.15;80.35
5814;BME280;2933;52.302;8.134;2022-07-09T06:42:25;101717.25;;;17.25;80.14
5814;BME280;2933;52.302;8.134;2022-07-09T06:47:27;101727.94;;;17.37;79.63
5814;BME280;2933;52.302;8.134;2022-07-09T06:52:28;101732.56;;;17.46;78.41
5814;BME280;2933;52.302;8.134;2022-07-09T06:57:31;101718.69;;;17.68;78.77
5814;BME280;2933;52.302;8.134;2022-07-09T07:02:33;101716.16;;;18.28;75.01
5814;BME280;2933;52.302;8.134;2022-07-09T07:07:34;101710.31;;;18.12;75.42
5814;BME280;2933;52.302;8.134;2022-07-09T07:12:37;101707.25;;;18.05;74.09
5814;BME280;2933;52.302;8.134;2022-07-09T07:17:38;101715.41;;;18.50;74.16
5814;BME280;2933;52.302;8.134;2022-07-09T07:22:40;101714.72;;;18.71;73.56
5814;BME280;2933;52.302;8.134;2022-07-09T07:27:43;101718.84;;;18.39;73.75
5814;BME280;2933;52.302;8.134;2022-07-09T07:32:44;101717.69;;;18.55;73.48
5814;BME280;2933;52.302;8.134;2022-07-09T07:37:46;101711.91;;;19.19;70.80
5814;BME280;2933;52.302;8.134;2022-07-09T07:42:49;101702.19;;;19.31;70.57
5814;BME280;2933;52.302;8.134;2022-07-09T07:47:50;101703.75;;;19.11;71.30
5814;BME280;2933;52.302;8.134;2022-07-09T07:52:54;101705.44;;;19.01;71.93
5814;BME280;2933;52.302;8.134;2022-07-09T07:57:58;101699.56;;;18.73;71.59
5814;BME280;2933;52.302;8.134;2022-07-09T08:02:59;101694.53;;;18.70;71.79
5814;BME280;2933;52.302;8.134;2022-07-09T08:08:01;101683.78;;;18.60;72.74
5814;BME280;2933;52.302;8.134;2022-07-09T08:13:04;101704.69;;;18.52;72.39
5814;BME280;2933;52.302;8.134;2022-07-09T08:18:05;101692.03;;;18.44;72.56
5814;BME280;2933;52.302;8.134;2022-07-09T08:23:09;101690.06;;;18.70;72.60
5814;BME280;2933;52.302;8.134;2022-07-09T08:28:12;101690.41;;;18.77;71.63
5814;BME280;2933;52.302;8.134;2022-07-09T08:33:14;101677.59;;;18.95;72.15
5814;BME280;2933;52.302;8.134;2022-07-09T08:38:15;101676.81;;;18.70;71.95
5814;BME280;2933;52.302;8.134;2022-07-09T08:43:18;101672.72;;;18.66;72.46
5814;BME280;2933;52.302;8.134;2022-07-09T08:48:20;101672.97;;;18.74;72.73
5814;BME280;2933;52.302;8.134;2022-07-09T08:53:23;101668.69;;;18.85;71.41
5814;BME280;2933;52.302;8.134;2022-07-09T08:58:26;101672.75;;;18.89;71.25
5814;BME280;2933;52.302;8.134;2022-07-09T09:03:27;101675.44;;;19.12;70.65
5814;BME280;2933;52.302;8.134;2022-07-09T09:08:33;101689.72;;;18.75;70.80
5814;BME280;2933;52.302;8.134;2022-07-09T09:13:40;101679.34;;;18.72;71.06
5814;BME280;2933;52.302;8.134;2022-07-09T09:18:43;101680.34;;;18.82;70.10
5814;BME280;2933;52.302;8.134;2022-07-09T09:23:46;101675.19;;;18.92;70.09
5814;BME280;2933;52.302;8.134;2022-07-09T09:28:51;101679.06;;;18.99;70.74
5814;BME280;2933;52.302;8.134;2022-07-09T09:33:55;101669.66;;;19.07;70.07
5814;BME280;2933;52.302;8.134;2022-07-09T09:39:14;101671.22;;;19.09;69.68
5814;BME280;2933;52.302;8.134;2022-07-09T09:44:19;101667.16;;;19.83;66.95
5814;BME280;2933;52.302;8.134;2022-07-09T09:49:21;101664.47;;;20.27;65.30
5814;BME280;2933;52.302;8.134;2022-07-09T09:54:23;101672.38;;;20.17;64.91
5814;BME280;2933;52.302;8.134;2022-07-09T09:59:26;101661.88;;;19.83;65.22
5814;BME280;2933;52.302;8.134;2022-07-09T10:04:28;101660.25;;;20.03;63.39
5814;BME280;2933;52.302;8.134;2022-07-09T10:09:29;101663.16;;;20.21;62.71
5814;BME280;2933;52.302;8.134;2022-07-09T10:14:34;101645.38;;;20.12;63.01
5814;BME280;2933;52.302;8.134;2022-07-09T10:19:51;101644.94;;;20.07;63.58
5814;BME280;2933;52.302;8.134;2022-07-09T10:24:53;101639.19;;;19.79;64.89
5814;BME280;2933;52.302;8.134;2022-07-09T10:29:57;101641.38;;;19.85;64.66
5814;BME280;2933;52.302;8.134;2022-07-09T10:35:00;101633.25;;;19.54;65.04
5814;BME280;2933;52.302;8.134;2022-07-09T10:40:09;101629.84;;;19.63;65.86
5814;BME280;2933;52.302;8.134;2022-07-09T10:45:26;101629.53;;;20.00;65.99
5814;BME280;2933;52.302;8.134;2022-07-09T10:50:30;101617.34;;;20.82;61.44
5814;BME280;2933;52.302;8.134;2022-07-09T10:55:32;101618.31;;;20.81;60.45
5814;BME280;2933;52.302;8.134;2022-07-09T11:00:35;101608.91;;;21.18;58.23
5814;BME280;2933;52.302;8.134;2022-07-09T11:05:44;101622.66;;;20.92;57.58
5814;BME280;2933;52.302;8.134;2022-07-09T11:10:46;101633.41;;;21.22;56.89
5814;BME280;2933;52.302;8.134;2022-07-09T11:15:49;101620.00;;;20.92;57.82
5814;BME280;2933;52.302;8.134;2022-07-09T11:20:50;101622.03;;;20.48;59.15
5814;BME280;2933;52.302;8.134;2022-07-09T11:25:52;101626.16;;;20.41;59.43
5814;BME280;2933;52.302;8.134;2022-07-09T11:30:59;101607.81;;;20.80;59.80
5814;BME280;2933;52.302;8.134;2022-07-09T11:36:01;101605.53;;;21.57;57.38
5814;BME280;2933;52.302;8.134;2022-07-09T11:41:02;101590.69;;;21.74;53.35
5814;BME280;2933;52.302;8.134;2022-07-09T11:46:05;101593.66;;;21.71;53.46
5814;BME280;2933;52.302;8.134;2022-07-09T11:51:07;101589.28;;;22.09;53.31
5814;BME280;2933;52.302;8.134;2022-07-09T11:56:08;101576.94;;;22.18;52.79
5814;BME280;2933;52.302;8.134;2022-07-09T12:01:11;101569.81;;;22.66;51.57
5814;BME280;2933;52.302;8.134;2022-07-09T12:06:13;101561.59;;;22.87;50.37
5814;BME280;2933;52.302;8.134;2022-07-09T12:11:15;101554.16;;;23.08;47.14
5814;BME280;2933;52.302;8.134;2022-07-09T12:16:28;101559.16;;;22.94;48.90
5814;BME280;2933;52.302;8.134;2022-07-09T12:21:29;101553.00;;;22.93;49.01
5814;BME280;2933;52.302;8.134;2022-07-09T12:26:31;101558.44;;;22.26;50.52
5814;BME280;2933;52.302;8.134;2022-07-09T12:31:34;101580.47;;;21.79;51.93
5814;BME280;2933;52.302;8.134;2022-07-09T12:36:38;101579.84;;;21.17;54.17
5814;BME280;2933;52.302;8.134;2022-07-09T12:41:41;101588.63;;;21.17;54.05
5814;BME280;2933;52.302;8.134;2022-07-09T12:46:44;101568.41;;;21.45;53.63
5814;BME280;2933;52.302;8.134;2022-07-09T12:51:46;101558.91;;;21.53;51.96
5814;BME280;2933;52.302;8.134;2022-07-09T12:56:47;101557.22;;;22.01;52.23
5814;BME280;2933;52.302;8.134;2022-07-09T13:01:51;101552.34;;;21.86;50.03
5814;BME280;2933;52.302;8.134;2022-07-09T13:06:53;101553.34;;;22.42;47.87
5814;BME280;2933;52.302;8.134;2022-07-09T13:11:54;101545.91;;;22.36;47.96
5814;BME280;2933;52.302;8.134;2022-07-09T13:16:57;101544.94;;;22.47;47.62
5814;BME280;2933;52.302;8.134;2022-07-09T13:21:59;101546.78;;;22.47;48.33
5814;BME280;2933;52.302;8.134;2022-07-09T13:27:00;101537.91;;;22.84;48.98
5814;BME280;2933;52.302;8.134;2022-07-09T13:32:05;101538.69;;;22.66;49.10
5814;BME280;2933;52.302;8.134;2022-07-09T13:37:06;101541.78;;;22.71;49.45
5814;BME280;2933;52.302;8.134;2022-07-09T13:42:08;101533.91;;;22.70;50.41
5814;BME280;2933;52.302;8.134;2022-07-09T13:47:11;101524.47;;;22.48;48.08
5814;BME280;2933;52.302;8.134;2022-07-09T13:52:14;101531.84;;;23.10;47.52
5814;BME280;2933;52.302;8.134;2022-07-09T13:57:15;101521.31;;;23.18;46.29
5814;BME280;2933;52.302;8.134;2022-07-09T14:02:18;101515.75;;;22.83;44.68
5814;BME280;2933;52.302;8.134;2022-07-09T14:07:20;101517.34;;;23.22;44.98
5814;BME280;2933;52.302;8.134;2022-07-09T14:12:22;101511.03;;;23.59;45.05
5814;BME280;2933;52.302;8.134;2022-07-09T14:17:26;101517.16;;;23.78;46.32
5814;BME280;2933;52.302;8.134;2022-07-09T14:22:27;101508.59;;;23.30;48.13
5814;BME280;2933;52.302;8.134;2022-07-09T14:27:29;101526.72;;;23.44;47.77
5814;BME280;2933;52.302;8.134;2022-07-09T14:32:32;101527.88;;;22.40;50.69
5814;BME280;2933;52.302;8.134;2022-07-09T14:37:33;101526.84;;;21.93;50.83
5814;BME280;2933;52.302;8.134;2022-07-09T14:42:35;101519.72;;;21.84;51.62
5814;BME280;2933;52.302;8.134;2022-07-09T14:47:38;101520.16;;;21.89;50.47
5814;BME280;2933;52.302;8.134;2022-07-09T14:52:43;101528.38;;;21.47;51.64
5814;BME280;2933;52.302;8.134;2022-07-09T14:57:44;101522.75;;;21.11;51.80
5814;BME280;2933;52.302;8.134;2022-07-09T15:02:47;101538.88;;;21.39;52.38
5814;BME280;2933;52.302;8.134;2022-07-09T15:07:49;101551.47;;;21.37;51.99
5814;BME280;2933;52.302;8.134;2022-07-09T15:12:51;101544.59;;;21.24;52.29
5814;BME280;2933;52.302;8.134;2022-07-09T15:17:53;101552.88;;;21.21;52.29
5814;BME280;2933;52.302;8.134;2022-07-09T15:22:55;101549.75;;;21.06;52.27
5814;BME280;2933;52.302;8.134;2022-07-09T15:27:59;101565.53;;;20.67;52.52
5814;BME280;2933;52.302;8.134;2022-07-09T15:33:02;101552.44;;;21.26;52.31
5814;BME280;2933;52.302;8.134;2022-07-09T15:38:04;101554.38;;;21.14;50.51
5814;BME280;2933;52.302;8.134;2022-07-09T15:43:05;101565.34;;;20.80;50.59
5814;BME280;2933;52.302;8.134;2022-07-09T15:48:09;101556.41;;;20.60;50.42
5814;BME280;2933;52.302;8.134;2022-07-09T15:53:11;101569.28;;;20.12;50.47
5814;BME280;2933;52.302;8.134;2022-07-09T15:58:13;101562.63;;;20.39;50.68
5814;BME280;2933;52.302;8.134;2022-07-09T16:03:16;101567.41;;;20.03;50.10
5814;BME280;2933;52.302;8.134;2022-07-09T16:08:18;101565.38;;;20.16;49.61
5814;BME280;2933;52.302;8.134;2022-07-09T16:13:19;101573.38;;;20.47;50.23
5814;BME280;2933;52.302;8.134;2022-07-09T16:18:22;101576.84;;;20.17;49.15
5814;BME280;2933;52.302;8.134;2022-07-09T16:23:24;101577.09;;;19.93;50.24
5814;BME280;2933;52.302;8.134;2022-07-09T16:28:25;101574.72;;;19.90;50.27
5814;BME280;2933;52.302;8.134;2022-07-09T16:33:28;101579.66;;;19.50;51.89
5814;BME280;2933;52.302;8.134;2022-07-09T16:38:29;101614.84;;;19.41;51.82
5814;BME280;2933;52.302;8.134;2022-07-09T16:43:31;101591.16;;;19.17;52.52
5814;BME280;2933;52.302;8.134;2022-07-09T16:48:36;101585.91;;;18.94;52.67
5814;BME280;2933;52.302;8.134;2022-07-09T16:53:38;101599.25;;;18.81;51.65
5814;BME280;2933;52.302;8.134;2022-07-09T16:58:40;101593.47;;;18.76;51.92
5814;BME280;2933;52.302;8.134;2022-07-09T17:03:42;101608.25;;;18.79;52.41
5814;BME280;2933;52.302;8.134;2022-07-09T17:08:44;101599.47;;;18.67;52.68
5814;BME280;2933;52.302;8.134;2022-07-09T17:13:46;101604.16;;;18.63;52.25
5814;BME280;2933;52.302;8.134;2022-07-09T17:18:49;101598.25;;;18.71;52.40
5814;BME280;2933;52.302;8.134;2022-07-09T17:23:50;101601.00;;;18.47;52.85
5814;BME280;2933;52.302;8.134;2022-07-09T17:28:52;101602.44;;;18.51;52.77
5814;BME280;2933;52.302;8.134;2022-07-09T17:33:55;101590.22;;;17.90;54.02
5814;BME280;2933;52.302;8.134;2022-07-09T17:38:56;101610.28;;;18.05;53.05
5814;BME280;2933;52.302;8.134;2022-07-09T17:43:58;101607.78;;;17.91;52.01
5814;BME280;2933;52.302;8.134;2022-07-09T17:49:01;101596.56;;;18.00;51.73
5814;BME280;2933;52.302;8.134;2022-07-09T17:54:02;101593.00;;;17.88;53.17
5814;BME280;2933;52.302;8.134;2022-07-09T17:59:04;101611.38;;;17.90;52.34
5814;BME280;2933;52.302;8.134;2022-07-09T18:04:07;101607.81;;;17.67;53.95
5814;BME280;2933;52.302;8.134;2022-07-09T18:09:08;101612.63;;;17.49;54.19
5814;BME280;2933;52.302;8.134;2022-07-09T18:14:10;101610.97;;;17.35;53.87
5814;BME280;2933;52.302;8.134;2022-07-09T18:19:12;101623.59;;;17.05;53.33
5814;BME280;2933;52.302;8.134;2022-07-09T18:24:14;101628.38;;;17.00;52.23
5814;BME280;2933;52.302;8.134;2022-07-09T18:29:15;101631.69;;;17.41;51.69
5814;BME280;2933;52.302;8.134;2022-07-09T18:34:18;101622.06;;;17.40;51.62
5814;BME280;2933;52.302;8.134;2022-07-09T18:39:20;101634.88;;;17.20;51.79
5814;BME280;2933;52.302;8.134;2022-07-09T18:44:22;101633.94;;;17.21;51.93
5814;BME280;2933;52.302;8.134;2022-07-09T18:49:24;101645.13;;;17.25;51.64
5814;BME280;2933;52.302;8.134;2022-07-09T18:54:26;101638.09;;;17.00;52.32
5814;BME280;2933;52.302;8.134;2022-07-09T18:59:27;101638.06;;;16.48;53.66
5814;BME280;2933;52.302;8.134;2022-07-09T19:04:30;101648.00;;;16.57;53.82
5814;BME280;2933;52.302;8.134;2022-07-09T19:09:33;101641.63;;;16.34;54.63
5814;BME280;2933;52.302;8.134;2022-07-09T19:14:34;101641.63;;;16.47;54.72
5814;BME280;2933;52.302;8.134;2022-07-09T19:19:37;101634.13;;;16.41;55.40
5814;BME280;2933;52.302;8.134;2022-07-09T19:24:39;101627.44;;;16.22;56.11
5814;BME280;2933;52.302;8.134;2022-07-09T19:29:40;101637.91;;;16.24;56.93
5814;BME280;2933;52.302;8.134;2022-07-09T19:34:44;101645.19;;;16.33;57.08
5814;BME280;2933;52.302;8.134;2022-07-09T19:39:46;101645.81;;;16.24;57.44
5814;BME280;2933;52.302;8.134;2022-07-09T19:44:48;101649.44;;;15.95;57.74
5814;BME280;2933;52.302;8.134;2022-07-09T19:49:50;101657.22;;;15.97;58.18
5814;BME280;2933;52.302;8.134;2022-07-09T19:54:52;101660.91;;;15.80;58.61
5814;BME280;2933;52.302;8.134;2022-07-09T19:59:53;101655.00;;;15.76;57.38
5814;BME280;2933;52.302;8.134;2022-07-09T20:04:56;101656.50;;;15.80;55.83
5814;BME280;2933;52.302;8.134;2022-07-09T20:09:58;101660.84;;;15.81;56.08
5814;BME280;2933;52.302;8.134;2022-07-09T20:14:59;101659.31;;;15.77;55.95
5814;BME280;2933;52.302;8.134;2022-07-09T20:20:06;101669.09;;;15.90;56.19
5814;BME280;2933;52.302;8.134;2022-07-09T20:25:08;101671.50;;;16.07;56.21
5814;BME280;2933;52.302;8.134;2022-07-09T20:30:10;101673.03;;;16.24;56.28
5814;BME280;2933;52.302;8.134;2022-07-09T20:35:13;101674.47;;;16.15;56.00
5814;BME280;2933;52.302;8.134;2022-07-09T20:40:14;101666.69;;;15.87;56.97
5814;BME280;2933;52.302;8.134;2022-07-09T20:45:16;101672.75;;;16.02;56.83
5814;BME280;2933;52.302;8.134;2022-07-09T20:50:19;101685.31;;;15.83;57.66
5814;BME280;2933;52.302;8.134;2022-07-09T20:55:20;101670.16;;;15.45;57.84
5814;BME280;2933;52.302;8.134;2022-07-09T21:00:22;101677.34;;;15.56;58.35
5814;BME280;2933;52.302;8.134;2022-07-09T21:05:26;101668.28;;;15.75;57.87
5814;BME280;2933;52.302;8.134;2022-07-09T21:10:28;101669.16;;;15.61;58.53
5814;BME280;2933;52.302;8.134;2022-07-09T21:15:29;101653.50;;;15.87;57.79
5814;BME280;2933;52.302;8.134;2022-07-09T21:20:32;101657.09;;;15.86;58.60
5814;BME280;2933;52.302;8.134;2022-07-09T21:25:34;101644.69;;;15.59;58.88
5814;BME280;2933;52.302;8.134;2022-07-09T21:30:35;101652.38;;;15.34;59.86
5814;BME280;2933;52.302;8.134;2022-07-09T21:35:38;101650.97;;;15.29;60.43
5814;BME280;2933;52.302;8.134;2022-07-09T21:40:40;101648.50;;;15.40;60.36
5814;BME280;2933;52.302;8.134;2022-07-09T21:45:41;101655.19;;;15.31;60.39
5814;BME280;2933;52.302;8.134;2022-07-09T21:50:44;101649.41;;;15.12;60.76
5814;BME280;2933;52.302;8.134;2022-07-09T21:55:46;101652.28;;;15.36;61.08
5814;BME280;2933;52.302;8.134;2022-07-09T22:00:49;101646.50;;;15.58;60.75
5814;BME280;2933;52.302;8.134;2022-07-09T22:05:53;101648.69;;;15.51;60.94
5814;BME280;2933;52.302;8.134;2022-07-09T22:10:54;101650.69;;;15.33;61.70
5814;BME280;2933;52.302;8.134;2022-07-09T22:15:56;101638.56;;;15.31;61.62
5814;BME280;2933;52.302;8.134;2022-07-09T22:21:00;101633.66;;;15.25;62.46
5814;BME280;2933;52.302;8.134;2022-07-09T22:26:02;101645.84;;;15.55;61.65
5814;BME280;2933;52.302;8.134;2022-07-09T22:31:04;101645.25;;;15.08;62.31
5814;BME280;2933;52.302;8.134;2022-07-09T22:36:07;101643.28;;;14.97;62.85
5814;BME280;2933;52.302;8.134;2022-07-09T22:41:09;101643.00;;;14.87;63.65
5814;BME280;2933;52.302;8.134;2022-07-09T22:46:11;101638.28;;;14.92;63.79
5814;BME280;2933;52.302;8.134;2022-07-09T22:51:13;101648.81;;;15.07;62.84
5814;BME280;2933;52.302;8.134;2022-07-09T22:56:15;101643.44;;;15.23;62.30
5814;BME280;2933;52.302;8.134;2022-07-09T23:01:16;101638.44;;;15.32;62.29
5814;BME280;2933;52.302;8.134;2022-07-09T23:06:19;101606.81;;;15.05;62.84
5814;BME280;2933;52.302;8.134;2022-07-09T23:11:22;101624.28;;;15.21;63.02
5814;BME280;2933;52.302;8.134;2022-07-09T23:16:23;101624.84;;;15.11;63.21
5814;BME280;2933;52.302;8.134;2022-07-09T23:21:29;101631.44;;;14.90;64.03
5814;BME280;2933;52.302;8.134;2022-07-09T23:26:32;101634.25;;;15.01;64.12
5814;BME280;2933;52.302;8.134;2022-07-09T23:31:33;101634.16;;;14.74;64.45
5814;BME280;2933;52.302;8.134;2022-07-09T23:36:36;101638.47;;;14.75;64.95
5814;BME280;2933;52.302;8.134;2022-07-09T23:41:38;101635.94;;;14.88;64.53
5814;BME280;2933;52.302;8.134;2022-07-09T23:46:39;101645.44;;;15.05;64.05
5814;BME280;2933;52.302;8.134;2022-07-09T23:51:42;101630.38;;;15.07;64.31
5814;BME280;2933;52.302;8.134;2022-07-09T23:56:43;101625.03;;;14.65;65.87
